Weather observations for the past three days for
Kearney, Kearney Municipal Airport
Metric (Imperial)
Date Time (cdt) Wind (kph) Vis. (km) Weather Sky Cond. Temperature (ºC) Relative Humidity Wind Chill (°C) Heat Index (°C) Pressure Precipitation (cm)
Air Dwpt 6 hour altimeter (cm) sea level (mb) 1 hr 3 hr 6 hr
Max. Min.
02 16:56 W 11 16.09 Fair CLR 21.1 -1.7 22% 76.25 1016.6
02 15:56 SW 24 16.09 Fair CLR 20.6 -1.7 22% 76.33 1017.4
02 14:56 SW 17 G 30 16.09 Fair CLR 18.9 -3.3 22% 76.4 1018.7
02 13:56 SW 19 G 26 16.09 Fair CLR 17.2 -3.9 24% 76.48 1019.8
02 12:56 SW 19 16.09 Fair CLR 16.1 -3.9 16.7 1.7 25% 76.56 1020.9
02 11:56 W 17 G 28 16.09 Fair CLR 15.6 -2.8 28% 76.63 1021.9
02 10:56 W 9 16.09 Fair CLR 13.9 -2.8 32% 76.66 1022.4
02 09:56 SW 17 16.09 Fair CLR 12.2 -2.2 37% 76.68 1022.7
02 08:56 SW 15 16.09 Fair CLR 8.9 -2.8 44% 7 76.71 1022.8
02 07:56 W 7 16.09 Fair CLR 4.4 -2.2 63% 3 76.71 1023.0
02 06:56 W 9 16.09 Fair CLR 2.2 -3.3 5 1.1 67% -0 76.68 1022.8
02 05:56 W 7 16.09 Fair CLR 3.3 -3.3 62% 2 76.68 1022.5
02 04:56 Calm 16.09 Fair CLR 2.2 -2.8 70% 76.68 1022.7
02 03:56 W 11 16.09 Fair CLR 2.2 -3.3 67% -1 76.68 1022.6
02 02:56 W 7 16.09 Fair CLR 2.8 -2.8 67% 1 76.68 1022.6
02 01:56 NW 6 16.09 Fair CLR 3.3 -2.8 65% 76.71 1022.9
02 00:56 NE 7 16.09 Fair CLR 3.9 -2.8 14.4 2.8 62% 2 76.66 1022.5
01 23:56 Calm 16.09 Fair CLR 3.3 -1.7 70% 76.61 1022.0
01 22:56 NE 11 16.09 Fair CLR 6.1 -1.7 58% 4 76.61 1021.7
01 21:56 NE 17 16.09 A Few Clouds FEW080 7.8 -1.1 54% 5 76.56 1021.0
01 20:56 NW 6 16.09 Fair CLR 11.7 -1.1 41% 76.48 1020.2
01 19:56 N 19 16.09 Overcast BKN070 OVC085 13.3 -2.2 34% 76.45 1019.9
01 18:56 N 22 16.09 Fair CLR 14.4 -2.2 17.2 12.8 32% 76.4 1018.9
01 17:56 NE 24 G 33 16.09 Fair CLR 16.1 -2.2 29% 76.35 1018.0
01 16:56 N 17 G 39 16.09 Partly Cloudy SCT080 16.7 -2.8 26% 76.38 1018.1
01 15:56 N 19 16.09 Mostly Cloudy BKN080 BKN095 16.7 -3.3 25% 76.43 1018.9
01 14:56 N 22 G 37 16.09 A Few Clouds FEW070 16.7 -1.1 30% 76.45 1019.3
01 13:56 N 15 16.09 A Few Clouds FEW120 15 0 36% 76.48 1019.8
01 12:56 Vrbl 6 G 26 16.09 Fair CLR 13.3 -0.6 13.3 1.7 39% 76.5 1020.5
01 11:56 Vrbl 9 16.09 Fair CLR 11.7 0.6 47% 76.53 1020.9
01 10:56 NE 11 16.09 A Few Clouds FEW095 10 -0.6 48% 9 76.53 1020.9
01 09:56 N 11 16.09 A Few Clouds FEW090 8.9 0 54% 7 76.56 1021.1
01 08:56 N 9 16.09 Fair CLR 6.1 0 65% 4 76.53 1021.1
01 07:56 N 11 16.09 Fair CLR 3.3 -0.6 76% 1 76.53 1020.8
01 06:56 N 11 16.09 Partly Cloudy SCT095 2.2 -1.1 5.6 2.2 79% -1 76.5 1020.4
01 05:56 NW 13 16.09 Overcast OVC100 4.4 0 73% 2 76.45 1019.7
01 03:56 SW 19 16.09 Fair CLR 4.4 -0.6 70% 1 76.45 1019.7
01 02:56 SW 15 16.09 Fair CLR 4.4 -0.6 70% 1 76.48 1019.9
01 01:56 SW 15 16.09 Fair CLR 4.4 -0.6 70% 1 76.53 1020.4
01 00:56 SW 11 16.09 Fair CLR 4.4 -0.6 12.8 3.3 70% 2 76.53 1020.6
30 23:56 S 11 16.09 Fair CLR 4.4 0 73% 2 76.53 1020.7
30 22:56 S 9 16.09 Fair CLR 6.1 0 65% 4 76.56 1021.1
30 21:56 NE 6 16.09 Fair CLR 6.1 0 65% 76.56 1021.1
30 20:56 NE 11 16.09 Fair CLR 7.2 0 61% 5 76.5 1020.4
30 19:56 N 22 16.09 Fair CLR 11.1 -0.6 45% 76.48 1019.9
30 18:56 N 28 16.09 A Few Clouds FEW060 12.8 0.6 15.6 12.8 44% 76.45 1019.5
30 17:56 NE 30 16.09 Mostly Cloudy SCT055 BKN085 12.8 1.1 45% 76.4 1019.1
30 16:56 N 35 G 43 16.09 Mostly Cloudy and Breezy BKN080 BKN090 13.9 1.7 44% 76.38 1018.6
30 15:56 N 19 16.09 Mostly Cloudy BKN075 BKN090 14.4 -2.2 32% 76.43 1019.0
30 13:56 N 24 G 31 14.48 Mostly Cloudy BKN060 15 0 36% 76.48 1019.4
30 12:56 NW 13 G 30 16.09 Mostly Cloudy SCT050 BKN060 13.9 0 13.9 5.6 39% 76.53 1020.3
30 11:56 N 19 G 33 16.09 Mostly Cloudy SCT038 BKN110 12.8 2.2 49% 76.58 1020.9
30 10:56 N 20 G 33 16.09 Overcast OVC100 11.1 3.3 59% 76.58 1021.1
30 09:56 N 22 16.09 Mostly Cloudy BKN100 9.4 4.4 71% 7 76.56 1020.9
30 08:56 N 19 16.09 Fair CLR 7.8 3.9 77% 5 76.56 1021.0
30 07:56 N 15 16.09 Fair CLR 6.7 2.8 76% 4 76.5 1020.5
30 06:56 NW 13 16.09 Fair CLR 5.6 2.8 8.9 5.6 82% 3 76.48 1019.9
30 05:56 NW 9 16.09 Fair CLR 5.6 2.8 82% 4 76.45 1019.4
30 04:56 NW 13 16.09 Fair CLR 6.1 4.4 89% 4 76.43 1019.1
30 03:56 NW 15 16.09 Fair CLR 7.2 5 86% 5 76.43 1018.7
30 02:56 W 13 16.09 Fair CLR 8.9 6.1 83% 7 76.4 1018.5
30 01:56 W 13 16.09 Fair CLR 8.3 6.7 90% 6 76.45 1019.1
30 00:56 W 9 16.09 Fair CLR 8.3 7.2 12.8 8.3 93% 7 76.45 1019.5
29 23:56 SW 7 16.09 Fair CLR 8.9 6.1 83% 8 76.45 1019.2
29 22:56 N 11 16.09 Light Rain FEW070 SCT100 10 6.7 80% 9 76.45 1019.5
29 21:56 W 6 16.09 Mostly Cloudy BKN095 11.1 6.1 72% 76.43 1019.3
29 20:56 S 11 16.09 Mostly Cloudy BKN090 BKN110 10.6 6.7 77% 76.35 1018.5
29 19:56 SW 13 16.09 Mostly Cloudy SCT070 BKN095 11.1 6.7 75% 76.35 1018.6
29 18:56 SW 33 G 43 16.09 Light Rain and Breezy OVC065 12.2 6.1 17.2 12.2 67% 76.33 1018.4
29 17:56 W 19 G 28 16.09 Mostly Cloudy SCT075 BKN090 16.1 2.8 41% 76.3 1017.6
Date Time (cdt) Wind (kph) Vis. (km) Weather Sky Cond. Air Dwpt Max. Min. Relative Humidity Wind Chill (°C) Heat Index (°C) altimeter (cm) sea level (mb) 1 hr 3 hr 6 hr
6 hour
Temperature (ºC) Pressure Precipitation (cm)